Terminal Aerodrome Forecast
Issued by NWS

Home | Current Version | Previous Version | Text Only | Print | Product List | Glossary On
Versions: 1 2 3 4 5 6 7 8 9 10 11 12 13
000
FTUS45 KABQ 271737
TAFROW
TAF
KROW 271737Z 2718/2818 VRB03KT P6SM FEW120
     FM272000 15007KT P6SM SCT120
     FM280400 22005KT P6SM FEW120
     FM281700 36004KT P6SM SCT120=

USA.gov is the U.S. government's official web portal to all federal, state and local government web resources and services.